createdAt,value
2022-08-18T00:01:19.717Z,25.90
2022-08-18T00:03:54.041Z,26.00
2022-08-18T00:05:49.103Z,26.00
2022-08-18T00:07:53.427Z,26.00
2022-08-18T00:10:00.020Z,26.10
2022-08-18T00:12:08.439Z,26.10
2022-08-18T00:14:21.356Z,26.10
2022-08-18T00:16:26.182Z,26.20
2022-08-18T00:18:30.493Z,26.30
2022-08-18T00:20:35.467Z,26.30
2022-08-18T00:22:40.327Z,26.30
2022-08-18T00:24:49.408Z,26.30
2022-08-18T00:26:55.745Z,26.30
2022-08-18T00:29:00.392Z,26.30
2022-08-18T00:31:06.964Z,26.30
2022-08-18T00:33:11.237Z,26.40
2022-08-18T00:35:18.498Z,26.40
2022-08-18T00:37:24.017Z,26.40
2022-08-18T00:39:35.074Z,26.30
2022-08-18T00:41:44.384Z,26.20
2022-08-18T00:43:52.490Z,26.20
2022-08-18T00:45:56.882Z,26.00
2022-08-18T00:48:02.387Z,26.10
2022-08-18T00:50:07.839Z,26.10
2022-08-18T00:52:20.234Z,26.10
2022-08-18T00:54:28.650Z,26.00
2022-08-18T00:56:37.812Z,26.10
2022-08-18T00:58:47.037Z,26.10
2022-08-18T01:00:53.751Z,26.00
2022-08-18T01:03:01.683Z,25.80
2022-08-18T01:05:12.154Z,25.60
2022-08-18T01:07:21.371Z,25.60
2022-08-18T01:09:25.822Z,25.50
2022-08-18T01:11:30.222Z,25.50
2022-08-18T01:13:38.381Z,25.60
2022-08-18T01:15:42.915Z,25.60
2022-08-18T01:18:06.577Z,25.60
2022-08-18T01:20:46.502Z,25.50
2022-08-18T01:22:59.731Z,25.40
2022-08-18T01:25:26.260Z,25.40
2022-08-18T01:27:32.462Z,25.40
2022-08-18T01:29:41.580Z,25.30
2022-08-18T01:31:55.586Z,25.30
2022-08-18T01:34:01.201Z,25.30
2022-08-18T01:36:12.833Z,25.20
2022-08-18T01:38:22.848Z,25.20
2022-08-18T01:41:22.242Z,25.20
2022-08-18T01:42:52.016Z,25.10
2022-08-18T01:44:57.055Z,25.00
2022-08-18T01:47:01.499Z,25.00
2022-08-18T01:49:07.701Z,25.00
2022-08-18T01:51:13.387Z,24.90
2022-08-18T01:53:19.328Z,24.90
2022-08-18T01:55:23.660Z,24.90
2022-08-18T01:57:28.337Z,24.80
2022-08-18T01:59:32.659Z,24.80
2022-08-18T02:01:43.365Z,24.80
2022-08-18T02:04:10.903Z,24.80
2022-08-18T02:06:32.222Z,24.80
2022-08-18T02:08:39.006Z,24.80
2022-08-18T02:10:47.799Z,24.80
2022-08-18T02:12:52.244Z,24.60
2022-08-18T02:14:56.831Z,24.50
2022-08-18T02:17:02.971Z,24.40
2022-08-18T02:19:07.256Z,24.50
2022-08-18T02:21:14.112Z,24.50
2022-08-18T02:23:23.506Z,24.50
2022-08-18T02:25:29.404Z,24.40
2022-08-18T02:27:34.034Z,24.40
2022-08-18T02:29:39.335Z,24.40
2022-08-18T02:31:43.857Z,24.30
2022-08-18T02:33:51.739Z,24.20
2022-08-18T02:35:58.876Z,24.30
2022-08-18T02:38:05.547Z,24.30
2022-08-18T02:40:15.502Z,24.20
2022-08-18T02:42:21.810Z,24.30
2022-08-18T02:44:26.277Z,24.30
2022-08-18T02:46:31.427Z,24.30
2022-08-18T02:48:36.366Z,24.30
2022-08-18T02:50:46.395Z,24.30
2022-08-18T02:52:51.167Z,24.40
2022-08-18T02:54:55.544Z,24.40
2022-08-18T02:56:59.985Z,24.40
2022-08-18T02:59:08.619Z,24.40
2022-08-18T03:01:13.169Z,24.40
2022-08-18T03:03:18.431Z,24.50
2022-08-18T03:05:22.938Z,24.40
2022-08-18T03:07:27.417Z,24.30
2022-08-18T03:09:33.515Z,24.20
2022-08-18T03:11:38.650Z,24.20
2022-08-18T03:13:43.126Z,24.20
2022-08-18T03:15:53.377Z,24.20
2022-08-18T03:18:02.237Z,24.10
2022-08-18T03:20:07.373Z,24.00
2022-08-18T03:22:28.411Z,23.80
2022-08-18T03:24:34.467Z,23.80
2022-08-18T03:26:43.173Z,23.90
2022-08-18T03:28:49.854Z,23.90
2022-08-18T03:30:56.006Z,24.00
2022-08-18T03:33:00.312Z,24.00
2022-08-18T03:35:05.071Z,23.90
2022-08-18T03:37:09.522Z,23.90
2022-08-18T03:39:15.109Z,24.20
2022-08-18T03:41:57.141Z,24.20
2022-08-18T03:43:49.954Z,24.30
2022-08-18T03:46:01.541Z,24.30
2022-08-18T03:48:05.985Z,24.50
2022-08-18T03:50:14.086Z,24.50
2022-08-18T03:52:21.750Z,24.50
2022-08-18T03:54:26.196Z,24.50
2022-08-18T03:56:33.721Z,24.70
2022-08-18T03:58:38.426Z,24.70
2022-08-18T04:00:43.070Z,24.60
2022-08-18T04:02:49.345Z,24.60
2022-08-18T04:04:54.020Z,24.70
2022-08-18T04:07:01.142Z,24.90
2022-08-18T04:09:07.414Z,25.10
2022-08-18T04:11:13.175Z,25.20
2022-08-18T04:13:17.693Z,25.30
2022-08-18T04:15:23.562Z,25.50
2022-08-18T04:17:28.336Z,25.70
2022-08-18T04:19:35.114Z,26.00
2022-08-18T04:21:42.375Z,26.20
2022-08-18T04:23:47.290Z,26.70
2022-08-18T04:25:58.170Z,27.00
2022-08-18T04:28:03.777Z,27.20
2022-08-18T04:30:09.804Z,27.30
2022-08-18T04:32:14.274Z,27.50
2022-08-18T04:34:20.700Z,27.70
2022-08-18T04:36:27.709Z,27.80
2022-08-18T04:38:32.077Z,27.80
2022-08-18T04:40:36.379Z,27.90
2022-08-18T04:42:43.499Z,28.00
2022-08-18T04:44:48.008Z,28.10
2022-08-18T04:46:54.658Z,28.00
2022-08-18T04:49:00.310Z,27.90
2022-08-18T04:51:09.171Z,27.90
2022-08-18T04:53:32.839Z,28.10
2022-08-18T04:55:37.238Z,28.30
2022-08-18T04:57:43.032Z,28.50
2022-08-18T04:59:50.360Z,28.70
2022-08-18T05:01:54.927Z,28.90
2022-08-18T05:04:00.793Z,29.00
2022-08-18T05:06:07.444Z,29.30
2022-08-18T05:08:11.934Z,29.50
2022-08-18T05:10:18.953Z,29.70
2022-08-18T05:12:26.005Z,29.50
2022-08-18T05:14:31.610Z,29.50
2022-08-18T05:16:48.164Z,29.50
2022-08-18T05:18:54.829Z,29.40
2022-08-18T05:21:01.100Z,29.50
2022-08-18T05:23:06.301Z,29.80
2022-08-18T05:25:13.594Z,30.10
2022-08-18T05:27:19.899Z,30.40
2022-08-18T05:29:25.213Z,30.50
2022-08-18T05:31:33.166Z,30.60
2022-08-18T05:33:39.842Z,30.60
2022-08-18T05:35:48.191Z,30.80
2022-08-18T05:38:28.174Z,31.00
2022-08-18T05:40:33.170Z,31.30
2022-08-18T05:42:41.333Z,31.30
2022-08-18T05:44:48.518Z,31.10
2022-08-18T05:46:55.031Z,30.70
2022-08-18T05:48:59.706Z,30.50
2022-08-18T05:51:14.983Z,30.10
2022-08-18T05:53:20.663Z,30.20
2022-08-18T05:55:48.500Z,30.50
2022-08-18T05:57:58.145Z,30.80
2022-08-18T06:00:03.332Z,31.10
2022-08-18T06:02:25.650Z,30.60
2022-08-18T06:04:40.960Z,30.00
2022-08-18T06:06:48.777Z,29.70
2022-08-18T06:08:59.902Z,29.50
2022-08-18T06:11:04.423Z,29.30
2022-08-18T06:13:13.609Z,29.30
2022-08-18T06:15:24.407Z,29.20
2022-08-18T06:17:55.075Z,29.50
2022-08-18T06:20:05.161Z,29.80
2022-08-18T06:22:21.608Z,29.70
2022-08-18T06:24:32.424Z,29.80
2022-08-18T06:26:43.494Z,30.20
2022-08-18T06:29:01.052Z,30.40
2022-08-18T06:31:14.864Z,30.30
2022-08-18T06:33:42.346Z,30.10
2022-08-18T06:35:53.340Z,30.10
2022-08-18T06:38:26.035Z,30.20
2022-08-18T06:40:30.864Z,30.60
2022-08-18T06:42:39.946Z,30.70
2022-08-18T06:44:50.722Z,31.20
2022-08-18T06:46:58.030Z,31.60
2022-08-18T06:49:06.577Z,31.50
2022-08-18T06:51:13.732Z,31.30
2022-08-18T06:53:26.875Z,31.70
2022-08-18T06:55:35.846Z,32.20
2022-08-18T06:57:58.889Z,32.70
2022-08-18T07:00:11.442Z,33.00
2022-08-18T07:02:36.905Z,33.00
2022-08-18T07:12:06.327Z,32.70
2022-08-18T07:17:00.329Z,32.50
2022-08-18T07:19:19.638Z,32.50
2022-08-18T07:21:30.018Z,32.40
2022-08-18T07:23:39.382Z,32.40
2022-08-18T07:25:48.959Z,32.40
2022-08-18T07:27:56.646Z,32.20
2022-08-18T07:56:27.230Z,32.80
2022-08-18T07:58:42.013Z,33.00
2022-08-18T08:00:59.345Z,33.10
2022-08-18T08:18:22.299Z,33.90
2022-08-18T08:21:03.237Z,33.10
2022-08-18T08:23:45.302Z,33.30
2022-08-18T08:37:37.557Z,34.60
2022-08-18T08:55:33.697Z,32.30
2022-08-18T08:58:03.033Z,32.50
2022-08-18T09:00:16.588Z,32.90
2022-08-18T09:02:56.031Z,33.50
2022-08-18T09:05:10.112Z,32.90
2022-08-18T09:07:38.263Z,32.80
2022-08-18T09:10:13.243Z,32.80
2022-08-18T09:12:38.069Z,32.90
2022-08-18T09:15:18.550Z,32.90
2022-08-18T09:17:43.479Z,33.10
2022-08-18T09:20:14.140Z,33.50
2022-08-18T09:22:45.548Z,33.70
2022-08-18T09:25:05.182Z,33.60
2022-08-18T09:27:26.238Z,33.40
2022-08-18T09:29:56.223Z,33.20
2022-08-18T09:32:57.261Z,33.20
2022-08-18T09:35:26.915Z,32.80
2022-08-18T09:38:09.453Z,32.80
2022-08-18T09:40:59.370Z,32.80
2022-08-18T09:43:15.453Z,32.70
2022-08-18T09:45:57.534Z,32.50
2022-08-18T09:48:25.533Z,32.50
2022-08-18T09:51:28.655Z,32.40
2022-08-18T09:54:25.621Z,32.70
2022-08-18T09:57:10.212Z,33.30
2022-08-18T09:59:35.444Z,33.60
2022-08-18T10:01:52.577Z,34.00
2022-08-18T10:04:52.493Z,34.40
2022-08-18T10:10:59.759Z,34.30
2022-08-18T10:13:43.886Z,34.00
2022-08-18T10:16:10.497Z,33.60
2022-08-18T10:18:58.107Z,33.70
2022-08-18T10:21:23.119Z,33.50
2022-08-18T10:24:34.897Z,33.10
2022-08-18T10:27:17.674Z,32.80
2022-08-18T10:29:47.756Z,32.60
2022-08-18T10:32:26.653Z,32.20
2022-08-18T10:34:52.498Z,32.10
2022-08-18T10:37:17.038Z,31.90
2022-08-18T10:39:41.170Z,31.90
2022-08-18T10:42:03.396Z,31.80
2022-08-18T10:44:27.640Z,31.90
2022-08-18T10:46:39.625Z,32.10
2022-08-18T10:49:07.130Z,32.10
2022-08-18T10:51:24.301Z,32.00
2022-08-18T10:53:46.593Z,31.90
2022-08-18T10:55:58.999Z,32.00
2022-08-18T10:58:51.746Z,32.10
2022-08-18T11:01:12.836Z,32.20
2022-08-18T11:03:55.729Z,32.50
2022-08-18T11:06:06.956Z,32.60
2022-08-18T11:08:22.293Z,32.10
2022-08-18T11:10:57.263Z,31.90
2022-08-18T11:13:21.800Z,32.20
2022-08-18T11:15:38.565Z,31.90
2022-08-18T11:17:54.340Z,32.00
2022-08-18T11:20:00.947Z,32.00
2022-08-18T11:22:06.215Z,32.00
2022-08-18T11:24:18.377Z,32.20
2022-08-18T11:26:24.060Z,32.30
2022-08-18T11:28:32.544Z,32.20
2022-08-18T11:30:42.120Z,31.90
2022-08-18T11:32:57.748Z,31.60
2022-08-18T11:35:06.286Z,31.80
2022-08-18T11:37:24.283Z,31.90
2022-08-18T11:39:38.132Z,31.80
2022-08-18T11:41:52.443Z,32.00
2022-08-18T11:44:12.112Z,32.10
2022-08-18T11:46:59.486Z,32.50
2022-08-18T11:49:26.271Z,32.60
2022-08-18T11:51:54.284Z,32.70
2022-08-18T11:54:01.981Z,32.50
2022-08-18T11:56:15.610Z,32.40
2022-08-18T11:58:44.792Z,32.50
2022-08-18T12:01:02.876Z,32.40
2022-08-18T12:03:38.638Z,32.70
2022-08-18T12:05:54.023Z,32.50
2022-08-18T12:08:01.670Z,32.40
2022-08-18T12:10:26.260Z,32.20
2022-08-18T12:12:45.832Z,31.90
2022-08-18T12:15:10.468Z,31.60
2022-08-18T12:17:25.279Z,31.60
2022-08-18T12:19:34.821Z,31.50
2022-08-18T12:21:50.576Z,31.40
2022-08-18T12:23:59.852Z,31.30
2022-08-18T12:26:05.104Z,31.40
2022-08-18T12:28:41.453Z,31.40
2022-08-18T12:30:57.664Z,31.50
2022-08-18T12:33:10.242Z,31.40
2022-08-18T12:35:22.569Z,31.40
2022-08-18T12:37:59.062Z,31.50
2022-08-18T12:40:23.612Z,31.50
2022-08-18T12:42:35.806Z,31.40
2022-08-18T12:44:56.628Z,31.40
2022-08-18T12:47:20.465Z,31.30
2022-08-18T12:50:07.435Z,31.30
2022-08-18T12:52:47.929Z,31.30
2022-08-18T12:55:08.501Z,31.30
2022-08-18T12:58:16.482Z,31.10
2022-08-18T13:00:36.527Z,31.40
2022-08-18T13:02:52.965Z,31.70
2022-08-18T13:05:00.350Z,31.80
2022-08-18T13:07:41.096Z,32.20
2022-08-18T13:10:51.378Z,32.30
2022-08-18T13:13:35.368Z,32.40
2022-08-18T13:16:07.488Z,32.60
2022-08-18T13:18:46.783Z,32.80
2022-08-18T13:21:19.431Z,32.90
2022-08-18T13:27:13.701Z,32.70
2022-08-18T13:29:46.929Z,32.70
2022-08-18T13:32:11.362Z,32.90
2022-08-18T13:37:45.947Z,33.30
2022-08-18T13:40:14.680Z,33.10
2022-08-18T13:42:53.876Z,32.80
2022-08-18T13:46:30.944Z,33.00
2022-08-18T13:49:03.707Z,33.30
2022-08-18T13:51:45.562Z,33.40
2022-08-18T13:54:31.359Z,33.50
2022-08-18T13:56:51.866Z,33.30
2022-08-18T13:59:39.093Z,33.10
2022-08-18T14:02:11.799Z,32.90
2022-08-18T14:04:44.936Z,33.00
2022-08-18T14:07:27.636Z,33.20
2022-08-18T14:09:49.813Z,33.10
2022-08-18T14:12:22.919Z,33.40
2022-08-18T14:14:29.130Z,33.40
2022-08-18T14:16:37.084Z,33.30
2022-08-18T14:19:09.698Z,33.40
2022-08-18T14:21:33.364Z,33.50
2022-08-18T14:24:00.514Z,33.60
2022-08-18T14:26:24.864Z,33.50
2022-08-18T14:28:42.815Z,33.50
2022-08-18T14:34:09.502Z,33.60
2022-08-18T14:37:28.581Z,33.40
2022-08-18T14:39:55.745Z,33.30
2022-08-18T14:42:09.451Z,33.20
2022-08-18T14:44:31.834Z,33.30
2022-08-18T14:50:25.633Z,33.00
2022-08-18T14:53:41.834Z,33.00
2022-08-18T14:56:02.560Z,33.00
2022-08-18T14:58:10.018Z,33.20
2022-08-18T15:00:23.026Z,33.20
2022-08-18T15:02:29.264Z,33.20
2022-08-18T15:07:56.227Z,33.30
2022-08-18T15:10:42.081Z,33.20
2022-08-18T15:12:58.334Z,33.30
2022-08-18T15:15:03.633Z,33.30
2022-08-18T15:17:18.909Z,33.50
2022-08-18T15:19:58.894Z,33.70
2022-08-18T15:22:31.284Z,33.50
2022-08-18T15:25:10.831Z,33.50
2022-08-18T15:27:47.941Z,33.40
2022-08-18T15:32:49.852Z,33.30
2022-08-18T15:35:16.881Z,32.90
2022-08-18T15:37:24.475Z,32.60
2022-08-18T15:39:29.497Z,32.50
2022-08-18T15:41:48.931Z,32.40
2022-08-18T15:43:59.428Z,32.20
2022-08-18T15:46:16.852Z,32.10
2022-08-18T15:48:33.024Z,32.00
2022-08-18T15:53:44.782Z,31.70
2022-08-18T15:55:50.998Z,31.50
2022-08-18T15:57:58.277Z,31.40
2022-08-18T16:00:03.400Z,31.30
2022-08-18T16:02:19.208Z,31.30
2022-08-18T16:04:24.146Z,31.30
2022-08-18T16:06:32.188Z,31.30
2022-08-18T16:08:37.578Z,31.20
2022-08-18T16:10:43.385Z,31.10
2022-08-18T16:12:48.401Z,31.20
2022-08-18T16:14:53.377Z,31.10
2022-08-18T16:16:58.425Z,31.10
2022-08-18T16:19:07.594Z,31.10
2022-08-18T16:21:13.757Z,31.00
2022-08-18T16:23:18.788Z,30.90
2022-08-18T16:25:23.556Z,30.90
2022-08-18T16:27:31.722Z,30.90
2022-08-18T16:29:36.593Z,31.00
2022-08-18T16:31:41.642Z,31.00
2022-08-18T16:33:46.314Z,30.80
2022-08-18T16:35:53.444Z,30.70
2022-08-18T16:37:58.379Z,30.70
2022-08-18T16:40:03.275Z,30.80
2022-08-18T16:42:08.429Z,30.90
2022-08-18T16:44:15.502Z,30.90
2022-08-18T16:46:23.601Z,30.80
2022-08-18T16:48:28.482Z,30.80
2022-08-18T16:50:33.069Z,30.80
2022-08-18T16:52:39.400Z,30.80
2022-08-18T16:54:43.888Z,30.90
2022-08-18T16:56:48.674Z,30.90
2022-08-18T16:59:10.921Z,30.90
2022-08-18T17:01:33.825Z,30.90
2022-08-18T17:04:13.621Z,31.00
2022-08-18T17:06:28.860Z,31.00
2022-08-18T17:08:37.284Z,31.00
2022-08-18T17:10:42.140Z,31.10
2022-08-18T17:12:46.529Z,31.20
2022-08-18T17:14:52.177Z,31.10
2022-08-18T17:16:58.743Z,31.10
2022-08-18T17:19:03.787Z,31.00
2022-08-18T17:21:11.122Z,31.10
2022-08-18T17:23:16.402Z,31.00
2022-08-18T17:25:25.864Z,31.00
2022-08-18T17:27:37.724Z,31.00
2022-08-18T17:29:48.562Z,30.90
2022-08-18T17:31:57.789Z,30.70
2022-08-18T17:34:07.945Z,30.60
2022-08-18T17:36:20.666Z,30.40
2022-08-18T17:38:29.957Z,30.40
2022-08-18T17:40:41.608Z,30.30
2022-08-18T17:42:51.696Z,30.20
2022-08-18T17:45:00.564Z,30.10
2022-08-18T17:47:06.549Z,29.90
2022-08-18T17:49:15.739Z,29.90
2022-08-18T17:51:34.890Z,29.80
2022-08-18T17:53:39.438Z,29.90
2022-08-18T17:55:49.351Z,29.90
2022-08-18T17:58:01.840Z,29.70
2022-08-18T18:00:11.786Z,29.60
2022-08-18T18:02:29.220Z,29.50
2022-08-18T18:04:35.370Z,29.40
2022-08-18T18:06:42.383Z,29.30
2022-08-18T18:08:50.756Z,29.30
2022-08-18T18:11:11.974Z,29.30
2022-08-18T18:13:27.481Z,29.20
2022-08-18T18:15:34.340Z,29.20
2022-08-18T18:17:40.962Z,29.20
2022-08-18T18:19:47.915Z,29.10
2022-08-18T18:22:06.921Z,29.00
2022-08-18T18:24:16.238Z,28.80
2022-08-18T18:26:28.908Z,28.70
2022-08-18T18:28:36.005Z,28.60
2022-08-18T18:30:41.001Z,28.50
2022-08-18T18:32:59.195Z,28.50
2022-08-18T18:35:15.307Z,28.40
2022-08-18T18:37:26.895Z,28.20
2022-08-18T18:39:36.576Z,28.00
2022-08-18T18:41:43.723Z,28.10
2022-08-18T18:43:51.391Z,28.10
2022-08-18T18:46:30.179Z,28.10
2022-08-18T18:48:52.208Z,28.10
2022-08-18T18:51:10.964Z,27.90
2022-08-18T18:53:26.395Z,27.60
2022-08-18T18:55:35.973Z,27.60
2022-08-18T18:57:46.400Z,27.60
2022-08-18T18:59:59.248Z,27.60
2022-08-18T19:02:33.897Z,27.60
2022-08-18T19:04:41.425Z,27.40
2022-08-18T19:06:52.035Z,27.30
2022-08-18T19:09:08.710Z,27.20
2022-08-18T19:11:22.672Z,27.20
2022-08-18T19:13:34.849Z,27.20
2022-08-18T19:15:41.467Z,27.10
2022-08-18T19:17:51.268Z,27.10
2022-08-18T19:20:00.669Z,27.10
2022-08-18T19:22:11.201Z,27.10
2022-08-18T19:24:20.626Z,27.10
2022-08-18T19:26:34.770Z,27.10
2022-08-18T19:29:12.755Z,27.10
2022-08-18T19:31:17.793Z,27.20
2022-08-18T19:33:32.502Z,27.20
2022-08-18T19:35:43.231Z,27.20
2022-08-18T19:38:04.326Z,27.10
2022-08-18T19:40:18.202Z,26.90
2022-08-18T19:42:28.058Z,26.90
2022-08-18T19:45:00.252Z,26.90
2022-08-18T19:47:17.914Z,26.90
2022-08-18T19:49:42.895Z,27.00
2022-08-18T19:51:51.741Z,27.00
2022-08-18T19:54:39.981Z,27.20
2022-08-18T19:56:56.702Z,27.20
2022-08-18T19:59:19.398Z,27.30
2022-08-18T20:01:39.420Z,27.40
2022-08-18T20:04:02.971Z,27.60
2022-08-18T20:06:38.336Z,27.60
2022-08-18T20:09:14.686Z,27.70
2022-08-18T20:11:54.441Z,27.60
2022-08-18T20:14:02.649Z,27.70
2022-08-18T20:16:43.448Z,27.70
2022-08-18T20:18:54.634Z,27.70
2022-08-18T20:21:36.801Z,27.60
2022-08-18T20:24:02.476Z,27.60
2022-08-18T20:26:27.613Z,27.50
2022-08-18T20:28:41.860Z,27.60
2022-08-18T20:31:02.736Z,27.60
2022-08-18T20:33:18.041Z,27.60
2022-08-18T20:35:27.679Z,27.60
2022-08-18T20:37:32.506Z,27.60
2022-08-18T20:39:48.343Z,27.60
2022-08-18T20:41:53.012Z,27.60
2022-08-18T20:44:03.057Z,27.60
2022-08-18T20:46:24.358Z,27.60
2022-08-18T20:48:37.533Z,27.60
2022-08-18T20:51:10.362Z,27.60
2022-08-18T20:53:26.853Z,27.60
2022-08-18T20:55:42.224Z,27.60
2022-08-18T20:57:47.394Z,27.60
2022-08-18T21:00:02.251Z,27.60
2022-08-18T21:02:28.470Z,27.50
2022-08-18T21:04:48.819Z,27.40
2022-08-18T21:06:55.331Z,27.30
2022-08-18T21:09:19.167Z,27.20
2022-08-18T21:12:03.579Z,27.10
2022-08-18T21:14:31.883Z,26.90
2022-08-18T21:16:59.723Z,26.80
2022-08-18T21:19:42.373Z,26.80
2022-08-18T21:23:11.266Z,26.60
2022-08-18T21:26:07.557Z,26.60
2022-08-18T21:29:55.220Z,26.50
2022-08-18T21:32:14.012Z,26.50
2022-08-18T21:34:35.093Z,26.50
2022-08-18T21:36:52.163Z,26.60
2022-08-18T21:39:06.275Z,26.60
2022-08-18T21:41:15.076Z,26.60
2022-08-18T21:43:36.801Z,26.40
2022-08-18T21:45:47.631Z,26.40
2022-08-18T21:47:54.731Z,26.50
2022-08-18T21:50:10.045Z,26.40
2022-08-18T21:52:25.594Z,26.40
2022-08-18T21:54:34.770Z,26.40
2022-08-18T21:56:39.402Z,26.30
2022-08-18T21:58:45.840Z,26.30
2022-08-18T22:01:11.818Z,26.30
2022-08-18T22:03:22.312Z,26.20
2022-08-18T22:05:58.683Z,25.90
2022-08-18T22:07:57.477Z,26.00
2022-08-18T22:10:23.615Z,26.00
2022-08-18T22:12:48.744Z,26.00
2022-08-18T22:14:54.789Z,26.00
2022-08-18T22:17:26.214Z,25.90
2022-08-18T22:19:30.823Z,25.80
2022-08-18T22:21:40.745Z,25.70
2022-08-18T22:24:06.378Z,25.70
2022-08-18T22:26:14.810Z,25.70
2022-08-18T22:28:23.456Z,25.70
2022-08-18T22:30:30.898Z,25.80
2022-08-18T22:32:37.729Z,25.80
2022-08-18T22:34:43.264Z,25.80
2022-08-18T22:36:52.703Z,25.80
2022-08-18T22:38:57.718Z,25.80
2022-08-18T22:41:02.846Z,25.80
2022-08-18T22:43:09.092Z,25.80
2022-08-18T22:45:15.817Z,25.70
2022-08-18T22:47:21.541Z,25.80
2022-08-18T22:49:26.385Z,25.60
2022-08-18T22:51:33.516Z,25.60
2022-08-18T22:53:38.257Z,25.50
2022-08-18T22:55:43.030Z,25.40
2022-08-18T22:57:47.609Z,25.40
2022-08-18T22:59:54.636Z,25.40
2022-08-18T23:02:02.179Z,25.50
2022-08-18T23:04:07.184Z,25.50
2022-08-18T23:06:11.975Z,25.30
2022-08-18T23:08:16.374Z,25.10
2022-08-18T23:10:21.381Z,25.00
2022-08-18T23:12:27.382Z,24.90
2022-08-18T23:14:33.184Z,25.00
2022-08-18T23:16:40.086Z,25.00
2022-08-18T23:18:44.852Z,24.90
2022-08-18T23:20:50.869Z,24.90
2022-08-18T23:22:55.228Z,25.00
2022-08-18T23:25:00.221Z,25.00
2022-08-18T23:27:16.053Z,25.00
2022-08-18T23:29:21.643Z,25.00
2022-08-18T23:31:26.241Z,24.90
2022-08-18T23:33:33.314Z,24.80
2022-08-18T23:35:38.200Z,24.70
2022-08-18T23:37:43.465Z,24.50
2022-08-18T23:39:48.564Z,24.50
2022-08-18T23:41:53.492Z,24.30
2022-08-18T23:43:59.253Z,24.20
2022-08-18T23:46:04.086Z,24.10
2022-08-18T23:48:10.123Z,24.00
2022-08-18T23:50:16.038Z,24.00
2022-08-18T23:52:20.420Z,23.80
2022-08-18T23:54:33.562Z,23.90
2022-08-18T23:56:38.871Z,23.90
2022-08-18T23:58:43.350Z,24.00
